sensor_id;sensor_type;location;lat;lon;timestamp;temperature;humidity
1880;DHT22;49285;49.002;8.390;2023-08-31T00:01:49;17.20;99.90
1880;DHT22;49285;49.002;8.390;2023-08-31T00:04:14;17.20;99.90
1880;DHT22;49285;49.002;8.390;2023-08-31T00:06:43;17.30;99.90
1880;DHT22;49285;49.002;8.390;2023-08-31T00:09:11;17.30;99.90
1880;DHT22;49285;49.002;8.390;2023-08-31T00:11:37;17.30;99.90
1880;DHT22;49285;49.002;8.390;2023-08-31T00:14:03;17.30;99.90
1880;DHT22;49285;49.002;8.390;2023-08-31T00:16:29;17.20;99.90
1880;DHT22;49285;49.002;8.390;2023-08-31T00:18:56;17.20;99.90
1880;DHT22;49285;49.002;8.390;2023-08-31T00:21:22;17.20;99.90
1880;DHT22;49285;49.002;8.390;2023-08-31T00:23:48;17.10;99.90
1880;DHT22;49285;49.002;8.390;2023-08-31T00:26:14;17.10;99.90
1880;DHT22;49285;49.002;8.390;2023-08-31T00:28:40;17.10;99.90
1880;DHT22;49285;49.002;8.390;2023-08-31T00:31:08;17.10;99.90
1880;DHT22;49285;49.002;8.390;2023-08-31T00:33:34;17.00;99.90
1880;DHT22;49285;49.002;8.390;2023-08-31T00:36:00;17.00;99.90
1880;DHT22;49285;49.002;8.390;2023-08-31T00:38:30;17.00;99.90
1880;DHT22;49285;49.002;8.390;2023-08-31T00:40:56;17.00;99.90
1880;DHT22;49285;49.002;8.390;2023-08-31T00:43:21;17.10;99.90
1880;DHT22;49285;49.002;8.390;2023-08-31T00:45:54;17.00;99.90
1880;DHT22;49285;49.002;8.390;2023-08-31T00:48:23;16.80;99.90
1880;DHT22;49285;49.002;8.390;2023-08-31T00:50:49;16.90;99.90
1880;DHT22;49285;49.002;8.390;2023-08-31T00:53:16;16.90;99.90
1880;DHT22;49285;49.002;8.390;2023-08-31T00:55:46;16.90;99.90
1880;DHT22;49285;49.002;8.390;2023-08-31T00:58:13;16.80;99.90
1880;DHT22;49285;49.002;8.390;2023-08-31T01:06:13;16.80;99.90
1880;DHT22;49285;49.002;8.390;2023-08-31T01:08:51;16.70;99.90
1880;DHT22;49285;49.002;8.390;2023-08-31T01:11:29;16.70;99.90
1880;DHT22;49285;49.002;8.390;2023-08-31T01:14:02;16.60;99.90
1880;DHT22;49285;49.002;8.390;2023-08-31T01:16:32;16.50;99.90
1880;DHT22;49285;49.002;8.390;2023-08-31T01:19:00;16.50;99.90
1880;DHT22;49285;49.002;8.390;2023-08-31T01:21:32;16.60;99.90
1880;DHT22;49285;49.002;8.390;2023-08-31T01:24:01;16.60;99.90
1880;DHT22;49285;49.002;8.390;2023-08-31T01:26:27;16.50;99.90
1880;DHT22;49285;49.002;8.390;2023-08-31T01:28:55;16.50;99.90
1880;DHT22;49285;49.002;8.390;2023-08-31T01:31:21;16.50;99.90
1880;DHT22;49285;49.002;8.390;2023-08-31T01:33:47;16.50;99.90
1880;DHT22;49285;49.002;8.390;2023-08-31T01:36:29;16.50;99.90
1880;DHT22;49285;49.002;8.390;2023-08-31T01:39:02;16.50;99.90
1880;DHT22;49285;49.002;8.390;2023-08-31T01:41:29;16.50;99.90
1880;DHT22;49285;49.002;8.390;2023-08-31T01:43:57;16.40;99.90
1880;DHT22;49285;49.002;8.390;2023-08-31T01:46:23;16.40;99.90
1880;DHT22;49285;49.002;8.390;2023-08-31T01:48:49;16.40;99.90
1880;DHT22;49285;49.002;8.390;2023-08-31T01:51:16;16.40;99.90
1880;DHT22;49285;49.002;8.390;2023-08-31T01:53:42;16.40;99.90
1880;DHT22;49285;49.002;8.390;2023-08-31T01:56:10;16.40;99.90
1880;DHT22;49285;49.002;8.390;2023-08-31T01:58:35;16.40;99.90
1880;DHT22;49285;49.002;8.390;2023-08-31T02:01:01;16.40;99.90
1880;DHT22;49285;49.002;8.390;2023-08-31T02:03:26;16.40;99.90
1880;DHT22;49285;49.002;8.390;2023-08-31T02:05:52;16.40;99.90
1880;DHT22;49285;49.002;8.390;2023-08-31T02:08:18;16.40;99.90
1880;DHT22;49285;49.002;8.390;2023-08-31T02:10:45;16.40;99.90
1880;DHT22;49285;49.002;8.390;2023-08-31T02:13:13;16.40;99.90
1880;DHT22;49285;49.002;8.390;2023-08-31T02:15:39;16.50;99.90
1880;DHT22;49285;49.002;8.390;2023-08-31T02:18:05;16.50;99.90
1880;DHT22;49285;49.002;8.390;2023-08-31T02:20:30;16.40;99.90
1880;DHT22;49285;49.002;8.390;2023-08-31T02:22:56;16.50;99.90
1880;DHT22;49285;49.002;8.390;2023-08-31T02:25:22;16.40;99.90
1880;DHT22;49285;49.002;8.390;2023-08-31T02:27:47;16.40;99.90
1880;DHT22;49285;49.002;8.390;2023-08-31T02:30:13;16.40;99.90
1880;DHT22;49285;49.002;8.390;2023-08-31T02:32:38;16.30;99.90
1880;DHT22;49285;49.002;8.390;2023-08-31T02:35:04;16.40;99.90
1880;DHT22;49285;49.002;8.390;2023-08-31T02:37:30;16.40;99.90
1880;DHT22;49285;49.002;8.390;2023-08-31T02:39:56;16.40;99.90
1880;DHT22;49285;49.002;8.390;2023-08-31T02:42:21;16.50;99.90
1880;DHT22;49285;49.002;8.390;2023-08-31T02:44:47;16.40;99.90
1880;DHT22;49285;49.002;8.390;2023-08-31T02:47:16;16.30;99.90
1880;DHT22;49285;49.002;8.390;2023-08-31T02:49:42;16.30;99.90
1880;DHT22;49285;49.002;8.390;2023-08-31T02:52:07;16.40;99.90
1880;DHT22;49285;49.002;8.390;2023-08-31T02:54:33;16.40;99.90
1880;DHT22;49285;49.002;8.390;2023-08-31T02:56:59;16.40;99.90
1880;DHT22;49285;49.002;8.390;2023-08-31T02:59:25;16.40;99.90
1880;DHT22;49285;49.002;8.390;2023-08-31T03:01:51;16.40;99.90
1880;DHT22;49285;49.002;8.390;2023-08-31T03:04:16;16.40;99.90
1880;DHT22;49285;49.002;8.390;2023-08-31T03:06:43;16.50;99.90
1880;DHT22;49285;49.002;8.390;2023-08-31T03:09:08;16.50;99.90
1880;DHT22;49285;49.002;8.390;2023-08-31T03:11:35;16.50;99.90
1880;DHT22;49285;49.002;8.390;2023-08-31T03:14:00;16.50;99.90
1880;DHT22;49285;49.002;8.390;2023-08-31T03:16:26;16.40;99.90
1880;DHT22;49285;49.002;8.390;2023-08-31T03:18:52;16.40;99.90
1880;DHT22;49285;49.002;8.390;2023-08-31T03:21:17;16.30;99.90
1880;DHT22;49285;49.002;8.390;2023-08-31T03:23:43;16.50;99.90
1880;DHT22;49285;49.002;8.390;2023-08-31T03:26:09;16.50;99.90
1880;DHT22;49285;49.002;8.390;2023-08-31T03:28:35;16.40;99.90
1880;DHT22;49285;49.002;8.390;2023-08-31T03:31:01;16.30;99.90
1880;DHT22;49285;49.002;8.390;2023-08-31T03:33:26;16.30;99.90
1880;DHT22;49285;49.002;8.390;2023-08-31T03:35:54;16.30;99.90
1880;DHT22;49285;49.002;8.390;2023-08-31T03:38:19;16.40;99.90
1880;DHT22;49285;49.002;8.390;2023-08-31T03:40:55;16.50;99.90
1880;DHT22;49285;49.002;8.390;2023-08-31T03:43:21;16.50;99.90
1880;DHT22;49285;49.002;8.390;2023-08-31T03:45:46;16.40;99.90
1880;DHT22;49285;49.002;8.390;2023-08-31T03:48:12;16.40;99.90
1880;DHT22;49285;49.002;8.390;2023-08-31T03:50:37;16.40;99.90
1880;DHT22;49285;49.002;8.390;2023-08-31T03:53:03;16.40;99.90
1880;DHT22;49285;49.002;8.390;2023-08-31T03:55:29;16.40;99.90
1880;DHT22;49285;49.002;8.390;2023-08-31T03:57:54;16.40;99.90
1880;DHT22;49285;49.002;8.390;2023-08-31T04:00:20;16.40;99.90
1880;DHT22;49285;49.002;8.390;2023-08-31T04:02:45;16.40;99.90
1880;DHT22;49285;49.002;8.390;2023-08-31T04:05:11;16.40;99.90
1880;DHT22;49285;49.002;8.390;2023-08-31T04:07:39;16.40;99.90
1880;DHT22;49285;49.002;8.390;2023-08-31T04:10:05;16.30;99.90
1880;DHT22;49285;49.002;8.390;2023-08-31T04:12:30;16.40;99.90
1880;DHT22;49285;49.002;8.390;2023-08-31T04:14:56;16.30;99.90
1880;DHT22;49285;49.002;8.390;2023-08-31T04:17:22;16.30;99.90
1880;DHT22;49285;49.002;8.390;2023-08-31T04:19:47;16.20;99.90
1880;DHT22;49285;49.002;8.390;2023-08-31T04:22:28;16.20;99.90
1880;DHT22;49285;49.002;8.390;2023-08-31T04:24:56;16.20;99.90
1880;DHT22;49285;49.002;8.390;2023-08-31T04:27:21;16.20;99.90
1880;DHT22;49285;49.002;8.390;2023-08-31T04:29:47;16.30;99.90
1880;DHT22;49285;49.002;8.390;2023-08-31T04:32:13;16.30;99.90
1880;DHT22;49285;49.002;8.390;2023-08-31T04:34:39;16.40;99.90
1880;DHT22;49285;49.002;8.390;2023-08-31T04:37:04;16.40;99.90
1880;DHT22;49285;49.002;8.390;2023-08-31T04:39:30;16.50;99.90
1880;DHT22;49285;49.002;8.390;2023-08-31T04:41:55;16.40;99.90
1880;DHT22;49285;49.002;8.390;2023-08-31T04:44:21;16.50;99.90
1880;DHT22;49285;49.002;8.390;2023-08-31T04:46:47;16.40;99.90
1880;DHT22;49285;49.002;8.390;2023-08-31T04:49:13;16.50;99.90
1880;DHT22;49285;49.002;8.390;2023-08-31T04:51:39;16.40;99.90
1880;DHT22;49285;49.002;8.390;2023-08-31T04:54:07;16.50;99.90
1880;DHT22;49285;49.002;8.390;2023-08-31T04:56:33;16.40;99.90
1880;DHT22;49285;49.002;8.390;2023-08-31T04:58:59;16.40;99.90
1880;DHT22;49285;49.002;8.390;2023-08-31T05:01:25;16.40;99.90
1880;DHT22;49285;49.002;8.390;2023-08-31T05:03:51;16.50;99.90
1880;DHT22;49285;49.002;8.390;2023-08-31T05:06:16;16.50;99.90
1880;DHT22;49285;49.002;8.390;2023-08-31T05:08:42;16.50;99.90
1880;DHT22;49285;49.002;8.390;2023-08-31T05:11:08;16.40;99.90
1880;DHT22;49285;49.002;8.390;2023-08-31T05:13:34;16.40;99.90
1880;DHT22;49285;49.002;8.390;2023-08-31T05:15:59;16.40;99.90
1880;DHT22;49285;49.002;8.390;2023-08-31T05:18:25;16.50;99.90
1880;DHT22;49285;49.002;8.390;2023-08-31T05:20:51;16.50;99.90
1880;DHT22;49285;49.002;8.390;2023-08-31T05:23:16;16.60;99.90
1880;DHT22;49285;49.002;8.390;2023-08-31T05:25:45;16.60;99.90
1880;DHT22;49285;49.002;8.390;2023-08-31T05:28:11;16.60;99.90
1880;DHT22;49285;49.002;8.390;2023-08-31T05:30:37;16.60;99.90
1880;DHT22;49285;49.002;8.390;2023-08-31T05:33:03;16.60;99.90
1880;DHT22;49285;49.002;8.390;2023-08-31T05:35:31;16.60;99.90
1880;DHT22;49285;49.002;8.390;2023-08-31T05:37:57;16.50;99.90
1880;DHT22;49285;49.002;8.390;2023-08-31T05:40:22;16.50;99.90
1880;DHT22;49285;49.002;8.390;2023-08-31T05:42:48;16.60;99.90
1880;DHT22;49285;49.002;8.390;2023-08-31T05:45:14;16.70;99.90
1880;DHT22;49285;49.002;8.390;2023-08-31T05:47:41;16.70;99.90
1880;DHT22;49285;49.002;8.390;2023-08-31T05:50:07;16.70;99.90
1880;DHT22;49285;49.002;8.390;2023-08-31T05:52:32;16.70;99.90
1880;DHT22;49285;49.002;8.390;2023-08-31T05:54:58;16.80;99.90
1880;DHT22;49285;49.002;8.390;2023-08-31T05:57:25;16.70;99.90
1880;DHT22;49285;49.002;8.390;2023-08-31T05:59:51;16.80;99.90
1880;DHT22;49285;49.002;8.390;2023-08-31T06:02:16;16.80;99.90
1880;DHT22;49285;49.002;8.390;2023-08-31T06:04:42;16.80;99.90
1880;DHT22;49285;49.002;8.390;2023-08-31T06:07:07;16.80;99.90
1880;DHT22;49285;49.002;8.390;2023-08-31T06:09:33;16.80;99.90
1880;DHT22;49285;49.002;8.390;2023-08-31T06:11:58;16.80;99.90
1880;DHT22;49285;49.002;8.390;2023-08-31T06:14:24;16.90;99.90
1880;DHT22;49285;49.002;8.390;2023-08-31T06:16:49;16.90;99.90
1880;DHT22;49285;49.002;8.390;2023-08-31T06:19:15;17.00;99.90
1880;DHT22;49285;49.002;8.390;2023-08-31T06:21:41;17.00;99.90
1880;DHT22;49285;49.002;8.390;2023-08-31T06:24:07;17.00;99.90
1880;DHT22;49285;49.002;8.390;2023-08-31T06:26:35;16.90;99.90
1880;DHT22;49285;49.002;8.390;2023-08-31T06:29:01;17.10;99.90
1880;DHT22;49285;49.002;8.390;2023-08-31T06:31:28;16.90;99.90
1880;DHT22;49285;49.002;8.390;2023-08-31T06:33:54;16.80;99.90
1880;DHT22;49285;49.002;8.390;2023-08-31T06:36:20;16.90;99.90
1880;DHT22;49285;49.002;8.390;2023-08-31T06:38:46;16.90;99.90
1880;DHT22;49285;49.002;8.390;2023-08-31T06:41:11;16.90;99.90
1880;DHT22;49285;49.002;8.390;2023-08-31T06:43:37;16.90;99.90
1880;DHT22;49285;49.002;8.390;2023-08-31T06:46:03;17.00;99.90
1880;DHT22;49285;49.002;8.390;2023-08-31T06:48:28;16.90;99.90
1880;DHT22;49285;49.002;8.390;2023-08-31T06:50:54;16.80;99.90
1880;DHT22;49285;49.002;8.390;2023-08-31T06:53:21;16.90;99.90
1880;DHT22;49285;49.002;8.390;2023-08-31T06:55:47;16.90;99.90
1880;DHT22;49285;49.002;8.390;2023-08-31T06:58:12;16.90;99.90
1880;DHT22;49285;49.002;8.390;2023-08-31T07:00:38;16.90;99.90
1880;DHT22;49285;49.002;8.390;2023-08-31T07:03:04;17.00;99.90
1880;DHT22;49285;49.002;8.390;2023-08-31T07:05:33;17.00;99.90
1880;DHT22;49285;49.002;8.390;2023-08-31T07:08:00;17.00;99.90
1880;DHT22;49285;49.002;8.390;2023-08-31T07:10:27;17.00;99.90
1880;DHT22;49285;49.002;8.390;2023-08-31T07:12:53;17.00;99.90
1880;DHT22;49285;49.002;8.390;2023-08-31T07:15:18;17.00;99.90
1880;DHT22;49285;49.002;8.390;2023-08-31T07:17:44;17.00;99.90
1880;DHT22;49285;49.002;8.390;2023-08-31T07:20:12;16.90;99.90
1880;DHT22;49285;49.002;8.390;2023-08-31T07:22:37;17.00;99.90
1880;DHT22;49285;49.002;8.390;2023-08-31T07:25:04;17.10;99.90
1880;DHT22;49285;49.002;8.390;2023-08-31T07:27:29;17.20;99.90
1880;DHT22;49285;49.002;8.390;2023-08-31T07:29:55;17.10;99.90
1880;DHT22;49285;49.002;8.390;2023-08-31T07:32:21;17.10;99.90
1880;DHT22;49285;49.002;8.390;2023-08-31T07:34:47;17.00;99.90
1880;DHT22;49285;49.002;8.390;2023-08-31T07:37:13;17.00;99.90
1880;DHT22;49285;49.002;8.390;2023-08-31T07:39:39;17.00;99.90
1880;DHT22;49285;49.002;8.390;2023-08-31T07:42:05;17.00;99.90
1880;DHT22;49285;49.002;8.390;2023-08-31T07:44:31;17.10;99.90
1880;DHT22;49285;49.002;8.390;2023-08-31T07:46:56;17.10;99.90
1880;DHT22;49285;49.002;8.390;2023-08-31T07:49:22;17.20;99.90
1880;DHT22;49285;49.002;8.390;2023-08-31T07:51:48;17.20;99.90
1880;DHT22;49285;49.002;8.390;2023-08-31T07:54:20;17.30;99.90
1880;DHT22;49285;49.002;8.390;2023-08-31T07:56:46;17.40;99.90
1880;DHT22;49285;49.002;8.390;2023-08-31T07:59:12;17.40;99.90
1880;DHT22;49285;49.002;8.390;2023-08-31T08:01:37;17.60;99.90
1880;DHT22;49285;49.002;8.390;2023-08-31T08:04:03;17.70;99.90
1880;DHT22;49285;49.002;8.390;2023-08-31T08:06:28;17.60;99.90
1880;DHT22;49285;49.002;8.390;2023-08-31T08:08:54;17.60;99.90
1880;DHT22;49285;49.002;8.390;2023-08-31T08:11:21;17.60;99.90
1880;DHT22;49285;49.002;8.390;2023-08-31T08:13:47;17.70;99.90
1880;DHT22;49285;49.002;8.390;2023-08-31T08:16:12;17.70;99.90
1880;DHT22;49285;49.002;8.390;2023-08-31T08:18:40;17.80;99.90
1880;DHT22;49285;49.002;8.390;2023-08-31T08:21:06;17.80;99.90
1880;DHT22;49285;49.002;8.390;2023-08-31T08:23:32;17.80;99.90
1880;DHT22;49285;49.002;8.390;2023-08-31T08:25:57;17.90;99.90
1880;DHT22;49285;49.002;8.390;2023-08-31T08:28:26;18.00;99.90
1880;DHT22;49285;49.002;8.390;2023-08-31T08:30:51;18.00;99.90
1880;DHT22;49285;49.002;8.390;2023-08-31T08:33:17;18.10;99.90
1880;DHT22;49285;49.002;8.390;2023-08-31T08:35:42;18.20;99.90
1880;DHT22;49285;49.002;8.390;2023-08-31T08:38:08;18.20;99.90
1880;DHT22;49285;49.002;8.390;2023-08-31T08:40:35;18.20;99.90
1880;DHT22;49285;49.002;8.390;2023-08-31T08:43:01;18.20;99.90
1880;DHT22;49285;49.002;8.390;2023-08-31T08:45:30;18.30;99.90
1880;DHT22;49285;49.002;8.390;2023-08-31T08:48:03;18.30;99.90
1880;DHT22;49285;49.002;8.390;2023-08-31T08:50:31;18.40;99.90
1880;DHT22;49285;49.002;8.390;2023-08-31T08:52:59;18.30;99.90
1880;DHT22;49285;49.002;8.390;2023-08-31T08:55:25;18.40;99.90
1880;DHT22;49285;49.002;8.390;2023-08-31T08:57:51;18.40;99.90
1880;DHT22;49285;49.002;8.390;2023-08-31T09:00:16;18.40;99.90
1880;DHT22;49285;49.002;8.390;2023-08-31T09:02:42;18.50;99.90
1880;DHT22;49285;49.002;8.390;2023-08-31T09:05:08;18.60;99.90
1880;DHT22;49285;49.002;8.390;2023-08-31T09:08:06;18.60;99.90
1880;DHT22;49285;49.002;8.390;2023-08-31T09:10:37;18.70;99.90
1880;DHT22;49285;49.002;8.390;2023-08-31T09:13:14;18.80;99.90
1880;DHT22;49285;49.002;8.390;2023-08-31T09:15:46;18.80;99.90
1880;DHT22;49285;49.002;8.390;2023-08-31T09:18:16;18.90;99.90
1880;DHT22;49285;49.002;8.390;2023-08-31T09:20:43;18.90;99.90
1880;DHT22;49285;49.002;8.390;2023-08-31T09:23:09;18.80;99.90
1880;DHT22;49285;49.002;8.390;2023-08-31T09:25:50;18.90;99.90
1880;DHT22;49285;49.002;8.390;2023-08-31T09:28:23;18.90;99.90
1880;DHT22;49285;49.002;8.390;2023-08-31T09:30:52;19.00;99.90
1880;DHT22;49285;49.002;8.390;2023-08-31T09:33:19;19.00;99.90
1880;DHT22;49285;49.002;8.390;2023-08-31T09:35:56;19.00;99.90
1880;DHT22;49285;49.002;8.390;2023-08-31T09:38:21;19.10;99.90
1880;DHT22;49285;49.002;8.390;2023-08-31T09:40:47;19.10;99.90
1880;DHT22;49285;49.002;8.390;2023-08-31T09:43:25;19.10;99.90
1880;DHT22;49285;49.002;8.390;2023-08-31T09:45:51;19.10;99.90
1880;DHT22;49285;49.002;8.390;2023-08-31T09:48:18;19.10;99.90
1880;DHT22;49285;49.002;8.390;2023-08-31T09:50:45;19.20;99.90
1880;DHT22;49285;49.002;8.390;2023-08-31T09:53:11;19.20;99.90
1880;DHT22;49285;49.002;8.390;2023-08-31T09:55:39;19.30;99.90
1880;DHT22;49285;49.002;8.390;2023-08-31T09:58:07;19.30;99.90
1880;DHT22;49285;49.002;8.390;2023-08-31T10:00:36;19.20;99.90
1880;DHT22;49285;49.002;8.390;2023-08-31T10:03:04;19.30;99.90
1880;DHT22;49285;49.002;8.390;2023-08-31T10:05:30;19.30;99.90
1880;DHT22;49285;49.002;8.390;2023-08-31T10:07:57;19.50;99.90
1880;DHT22;49285;49.002;8.390;2023-08-31T10:10:23;19.50;99.90
1880;DHT22;49285;49.002;8.390;2023-08-31T10:12:49;19.50;99.90
1880;DHT22;49285;49.002;8.390;2023-08-31T10:15:17;19.70;99.90
1880;DHT22;49285;49.002;8.390;2023-08-31T10:17:44;19.80;99.90
1880;DHT22;49285;49.002;8.390;2023-08-31T10:20:11;19.90;99.90
1880;DHT22;49285;49.002;8.390;2023-08-31T10:22:37;19.70;99.90
1880;DHT22;49285;49.002;8.390;2023-08-31T10:25:05;19.50;99.90
1880;DHT22;49285;49.002;8.390;2023-08-31T10:27:42;19.60;99.90
1880;DHT22;49285;49.002;8.390;2023-08-31T10:38:17;19.80;99.90
1880;DHT22;49285;49.002;8.390;2023-08-31T10:41:16;19.70;99.90
1880;DHT22;49285;49.002;8.390;2023-08-31T10:46:26;19.60;99.90
1880;DHT22;49285;49.002;8.390;2023-08-31T10:48:56;19.50;99.90
1880;DHT22;49285;49.002;8.390;2023-08-31T10:51:30;19.60;99.90
1880;DHT22;49285;49.002;8.390;2023-08-31T10:54:24;19.60;99.90
1880;DHT22;49285;49.002;8.390;2023-08-31T10:59:23;19.80;99.90
1880;DHT22;49285;49.002;8.390;2023-08-31T11:01:59;19.80;99.90
1880;DHT22;49285;49.002;8.390;2023-08-31T11:04:27;19.90;99.90
1880;DHT22;49285;49.002;8.390;2023-08-31T11:07:13;20.00;99.90
1880;DHT22;49285;49.002;8.390;2023-08-31T11:09:40;20.00;99.90
1880;DHT22;49285;49.002;8.390;2023-08-31T11:12:06;20.00;99.90
1880;DHT22;49285;49.002;8.390;2023-08-31T11:14:32;20.10;99.90
1880;DHT22;49285;49.002;8.390;2023-08-31T11:16:59;20.10;99.90
1880;DHT22;49285;49.002;8.390;2023-08-31T11:19:26;20.10;99.90
1880;DHT22;49285;49.002;8.390;2023-08-31T11:21:52;20.30;99.90
1880;DHT22;49285;49.002;8.390;2023-08-31T11:24:18;20.30;99.90
1880;DHT22;49285;49.002;8.390;2023-08-31T11:26:43;20.30;99.90
1880;DHT22;49285;49.002;8.390;2023-08-31T11:29:09;20.30;99.90
1880;DHT22;49285;49.002;8.390;2023-08-31T11:31:38;20.40;99.90
1880;DHT22;49285;49.002;8.390;2023-08-31T11:34:17;20.50;99.90
1880;DHT22;49285;49.002;8.390;2023-08-31T11:36:44;20.60;99.90
1880;DHT22;49285;49.002;8.390;2023-08-31T11:39:10;20.60;99.90
1880;DHT22;49285;49.002;8.390;2023-08-31T11:41:36;20.70;99.90
1880;DHT22;49285;49.002;8.390;2023-08-31T11:44:10;20.80;99.90
1880;DHT22;49285;49.002;8.390;2023-08-31T11:46:37;20.90;99.90
1880;DHT22;49285;49.002;8.390;2023-08-31T11:49:04;20.90;99.90
1880;DHT22;49285;49.002;8.390;2023-08-31T11:51:31;21.00;99.90
1880;DHT22;49285;49.002;8.390;2023-08-31T11:53:57;21.10;99.90
1880;DHT22;49285;49.002;8.390;2023-08-31T11:56:24;21.20;99.90
1880;DHT22;49285;49.002;8.390;2023-08-31T11:58:51;21.40;99.90
1880;DHT22;49285;49.002;8.390;2023-08-31T12:01:22;21.50;99.90
1880;DHT22;49285;49.002;8.390;2023-08-31T12:03:49;21.70;99.90
1880;DHT22;49285;49.002;8.390;2023-08-31T12:06:16;21.90;99.90
1880;DHT22;49285;49.002;8.390;2023-08-31T12:08:42;22.00;99.90
1880;DHT22;49285;49.002;8.390;2023-08-31T12:11:08;22.20;99.90
1880;DHT22;49285;49.002;8.390;2023-08-31T12:13:34;22.20;99.90
1880;DHT22;49285;49.002;8.390;2023-08-31T12:15:59;22.00;99.90
1880;DHT22;49285;49.002;8.390;2023-08-31T12:18:30;21.90;99.90
1880;DHT22;49285;49.002;8.390;2023-08-31T12:20:57;21.70;99.90
1880;DHT22;49285;49.002;8.390;2023-08-31T12:23:23;21.60;99.90
1880;DHT22;49285;49.002;8.390;2023-08-31T12:25:50;21.70;99.90
1880;DHT22;49285;49.002;8.390;2023-08-31T12:28:20;21.60;99.90
1880;DHT22;49285;49.002;8.390;2023-08-31T12:30:51;21.70;99.90
1880;DHT22;49285;49.002;8.390;2023-08-31T12:33:18;21.70;99.90
1880;DHT22;49285;49.002;8.390;2023-08-31T12:35:44;22.10;99.90
1880;DHT22;49285;49.002;8.390;2023-08-31T12:38:09;22.20;99.90
1880;DHT22;49285;49.002;8.390;2023-08-31T12:40:35;22.20;99.90
1880;DHT22;49285;49.002;8.390;2023-08-31T12:43:01;22.10;99.90
1880;DHT22;49285;49.002;8.390;2023-08-31T12:45:27;22.00;99.90
1880;DHT22;49285;49.002;8.390;2023-08-31T12:47:53;22.10;99.90
1880;DHT22;49285;49.002;8.390;2023-08-31T12:50:18;22.00;99.90
1880;DHT22;49285;49.002;8.390;2023-08-31T12:52:45;21.90;99.90
1880;DHT22;49285;49.002;8.390;2023-08-31T12:55:12;21.70;99.90
1880;DHT22;49285;49.002;8.390;2023-08-31T12:57:38;21.60;99.90
1880;DHT22;49285;49.002;8.390;2023-08-31T13:00:04;21.60;99.90
1880;DHT22;49285;49.002;8.390;2023-08-31T13:02:36;21.50;99.90
1880;DHT22;49285;49.002;8.390;2023-08-31T13:05:02;21.40;99.90
1880;DHT22;49285;49.002;8.390;2023-08-31T13:07:28;21.30;99.90
1880;DHT22;49285;49.002;8.390;2023-08-31T13:09:54;21.30;99.90
1880;DHT22;49285;49.002;8.390;2023-08-31T13:12:19;21.30;99.90
1880;DHT22;49285;49.002;8.390;2023-08-31T13:14:45;21.40;99.90
1880;DHT22;49285;49.002;8.390;2023-08-31T13:17:10;21.50;99.90
1880;DHT22;49285;49.002;8.390;2023-08-31T13:19:36;21.50;99.90
1880;DHT22;49285;49.002;8.390;2023-08-31T13:22:01;21.50;99.90
1880;DHT22;49285;49.002;8.390;2023-08-31T13:24:28;21.40;99.90
1880;DHT22;49285;49.002;8.390;2023-08-31T13:26:53;21.20;99.90
1880;DHT22;49285;49.002;8.390;2023-08-31T13:29:20;21.20;99.90
1880;DHT22;49285;49.002;8.390;2023-08-31T13:31:46;21.20;99.90
1880;DHT22;49285;49.002;8.390;2023-08-31T13:34:11;21.30;99.90
1880;DHT22;49285;49.002;8.390;2023-08-31T13:36:38;21.20;99.90
1880;DHT22;49285;49.002;8.390;2023-08-31T13:39:04;21.30;99.90
1880;DHT22;49285;49.002;8.390;2023-08-31T13:41:30;21.20;99.90
1880;DHT22;49285;49.002;8.390;2023-08-31T13:43:58;21.20;99.90
1880;DHT22;49285;49.002;8.390;2023-08-31T13:46:24;21.20;99.90
1880;DHT22;49285;49.002;8.390;2023-08-31T13:48:49;21.00;99.90
1880;DHT22;49285;49.002;8.390;2023-08-31T13:51:15;21.00;99.90
1880;DHT22;49285;49.002;8.390;2023-08-31T13:53:40;21.00;99.90
1880;DHT22;49285;49.002;8.390;2023-08-31T13:56:06;21.00;99.90
1880;DHT22;49285;49.002;8.390;2023-08-31T13:58:32;21.00;99.90
1880;DHT22;49285;49.002;8.390;2023-08-31T14:01:00;21.00;99.90
1880;DHT22;49285;49.002;8.390;2023-08-31T14:03:26;20.90;99.90
1880;DHT22;49285;49.002;8.390;2023-08-31T14:05:52;21.00;99.90
1880;DHT22;49285;49.002;8.390;2023-08-31T14:08:18;21.00;99.90
1880;DHT22;49285;49.002;8.390;2023-08-31T14:10:43;20.90;99.90
1880;DHT22;49285;49.002;8.390;2023-08-31T14:13:09;20.90;99.90
1880;DHT22;49285;49.002;8.390;2023-08-31T14:15:34;20.90;99.90
1880;DHT22;49285;49.002;8.390;2023-08-31T14:18:00;20.90;99.90
1880;DHT22;49285;49.002;8.390;2023-08-31T14:20:26;20.90;99.90
1880;DHT22;49285;49.002;8.390;2023-08-31T14:22:51;20.80;99.90
1880;DHT22;49285;49.002;8.390;2023-08-31T14:25:17;20.90;99.90
1880;DHT22;49285;49.002;8.390;2023-08-31T14:27:43;20.90;99.90
1880;DHT22;49285;49.002;8.390;2023-08-31T14:30:09;20.90;99.90
1880;DHT22;49285;49.002;8.390;2023-08-31T14:32:34;21.20;99.90
1880;DHT22;49285;49.002;8.390;2023-08-31T14:35:00;21.60;99.90
1880;DHT22;49285;49.002;8.390;2023-08-31T14:37:26;21.90;99.90
1880;DHT22;49285;49.002;8.390;2023-08-31T14:39:52;22.10;99.90
1880;DHT22;49285;49.002;8.390;2023-08-31T14:42:17;22.20;99.90
1880;DHT22;49285;49.002;8.390;2023-08-31T14:44:46;22.30;99.90
1880;DHT22;49285;49.002;8.390;2023-08-31T14:47:12;22.50;99.90
1880;DHT22;49285;49.002;8.390;2023-08-31T14:49:39;22.60;99.90
1880;DHT22;49285;49.002;8.390;2023-08-31T14:52:06;22.70;99.90
1880;DHT22;49285;49.002;8.390;2023-08-31T14:54:32;22.60;99.90
1880;DHT22;49285;49.002;8.390;2023-08-31T14:56:58;22.60;99.90
1880;DHT22;49285;49.002;8.390;2023-08-31T14:59:24;22.50;99.90
1880;DHT22;49285;49.002;8.390;2023-08-31T15:01:50;22.30;99.90
1880;DHT22;49285;49.002;8.390;2023-08-31T15:04:16;22.20;99.90
1880;DHT22;49285;49.002;8.390;2023-08-31T15:06:42;21.90;99.90
1880;DHT22;49285;49.002;8.390;2023-08-31T15:09:08;21.80;99.90
1880;DHT22;49285;49.002;8.390;2023-08-31T15:11:34;21.60;99.90
1880;DHT22;49285;49.002;8.390;2023-08-31T15:13:59;21.50;99.90
1880;DHT22;49285;49.002;8.390;2023-08-31T15:16:26;21.40;99.90
1880;DHT22;49285;49.002;8.390;2023-08-31T15:18:53;21.30;99.90
1880;DHT22;49285;49.002;8.390;2023-08-31T15:21:19;21.30;99.90
1880;DHT22;49285;49.002;8.390;2023-08-31T15:23:45;21.30;99.90
1880;DHT22;49285;49.002;8.390;2023-08-31T15:26:11;21.30;99.90
1880;DHT22;49285;49.002;8.390;2023-08-31T15:28:38;21.30;99.90
1880;DHT22;49285;49.002;8.390;2023-08-31T15:31:04;21.30;99.90
1880;DHT22;49285;49.002;8.390;2023-08-31T15:33:30;21.40;99.90
1880;DHT22;49285;49.002;8.390;2023-08-31T15:36:08;21.40;99.90
1880;DHT22;49285;49.002;8.390;2023-08-31T15:38:35;21.40;99.90
1880;DHT22;49285;49.002;8.390;2023-08-31T15:41:02;21.50;99.90
1880;DHT22;49285;49.002;8.390;2023-08-31T15:43:30;21.60;99.90
1880;DHT22;49285;49.002;8.390;2023-08-31T15:46:00;21.70;99.90
1880;DHT22;49285;49.002;8.390;2023-08-31T15:48:26;21.80;99.90
1880;DHT22;49285;49.002;8.390;2023-08-31T15:50:54;21.70;99.90
1880;DHT22;49285;49.002;8.390;2023-08-31T15:53:19;21.70;99.90
1880;DHT22;49285;49.002;8.390;2023-08-31T15:55:49;21.70;99.90
1880;DHT22;49285;49.002;8.390;2023-08-31T15:58:15;21.60;99.90
1880;DHT22;49285;49.002;8.390;2023-08-31T16:00:41;21.60;99.90
1880;DHT22;49285;49.002;8.390;2023-08-31T16:03:06;21.50;99.90